Time;durP1;ratioP1;P1;durP2;ratioP2;P2;SDS_P1;SDS_P2;PMS_P1;PMS_P2;Temp;Humidity;BMP_temperature;BMP_pressure;BME280_temperature;BME280_humidity;BME280_pressure;Samples;Min_cycle;Max_cycle;Signal;HPM_P1;HPM_P2
2022/12/20 00:00:58;;;;;;;1999.90;999.90;;;4.30;99.90;;;;;;5001738;28;20498;-73
2022/12/20 00:03:25;;;;;;;1999.90;999.90;;;4.30;99.90;;;;;;4989972;28;20475;-74
2022/12/20 00:05:53;;;;;;;1999.90;999.90;;;4.30;99.90;;;;;;4990977;28;20459;-75
2022/12/20 00:08:20;;;;;;;1999.90;999.90;;;4.20;99.90;;;;;;4989039;28;20458;-75
2022/12/20 00:10:47;;;;;;;1999.90;999.90;;;4.10;99.90;;;;;;4989311;28;20447;-75
2022/12/20 00:13:14;;;;;;;1999.90;999.90;;;4.00;99.90;;;;;;4988910;28;20455;-75
2022/12/20 00:15:41;;;;;;;1999.90;999.90;;;4.00;99.90;;;;;;4996964;28;20493;-75
2022/12/20 00:18:08;;;;;;;1999.90;999.90;;;4.00;99.90;;;;;;5007692;28;20453;-75
2022/12/20 00:20:35;;;;;;;1999.90;999.90;;;4.00;99.90;;;;;;5006169;28;20482;-76
2022/12/20 00:23:03;;;;;;;1999.90;999.90;;;4.00;99.90;;;;;;5007490;28;20948;-74
2022/12/20 00:25:30;;;;;;;1999.90;999.90;;;4.00;99.90;;;;;;5021885;28;20460;-74
2022/12/20 00:27:57;;;;;;;1999.90;999.90;;;4.00;99.90;;;;;;5008950;28;20448;-76
2022/12/20 00:30:23;;;;;;;1999.90;999.90;;;4.00;99.90;;;;;;5006240;28;20452;-75
2022/12/20 00:32:50;;;;;;;1999.90;999.90;;;3.90;99.90;;;;;;5006326;28;20457;-75
2022/12/20 00:35:17;;;;;;;1999.90;999.90;;;3.90;99.90;;;;;;5007359;28;20470;-77
2022/12/20 00:37:44;;;;;;;1999.90;999.90;;;3.80;99.90;;;;;;5007365;28;20512;-75
2022/12/20 00:40:13;;;;;;;1999.90;999.90;;;3.80;99.90;;;;;;5006274;28;20574;-75
2022/12/20 00:42:39;;;;;;;1999.90;999.90;;;3.70;99.90;;;;;;5007456;28;20457;-75
2022/12/20 00:45:07;;;;;;;1999.90;999.90;;;3.70;99.90;;;;;;5007653;28;20469;-74
2022/12/20 00:47:34;;;;;;;1999.90;999.90;;;3.70;99.90;;;;;;5006670;28;20497;-75
2022/12/20 00:50:01;;;;;;;1999.90;999.90;;;3.70;99.90;;;;;;5005785;28;20450;-74
2022/12/20 00:52:27;;;;;;;1999.90;999.90;;;3.70;99.90;;;;;;5004177;28;20469;-75
2022/12/20 00:54:54;;;;;;;1999.90;999.90;;;3.70;99.90;;;;;;5005677;28;20486;-71
2022/12/20 00:57:22;;;;;;;1999.90;999.90;;;3.80;99.90;;;;;;5021439;28;20502;-74
2022/12/20 00:59:49;;;;;;;1999.90;999.90;;;3.80;99.90;;;;;;5025814;28;20480;-73
2022/12/20 01:02:16;;;;;;;1999.90;999.90;;;3.80;99.90;;;;;;5027340;28;20452;-74
2022/12/20 01:04:42;;;;;;;1999.90;999.90;;;3.80;99.90;;;;;;5028220;28;20501;-74
2022/12/20 01:07:10;;;;;;;1999.90;999.90;;;3.80;99.90;;;;;;5028124;28;20464;-73
2022/12/20 01:09:37;;;;;;;1999.90;999.90;;;3.80;99.90;;;;;;4997945;28;20558;-74
2022/12/20 01:12:04;;;;;;;1999.90;999.90;;;3.80;99.90;;;;;;4988845;28;20886;-74
2022/12/20 01:14:32;;;;;;;1999.90;999.90;;;3.90;99.90;;;;;;4989139;28;20474;-73
2022/12/20 01:16:58;;;;;;;1999.90;999.90;;;3.90;99.90;;;;;;4988743;28;20462;-75
2022/12/20 01:19:25;;;;;;;1999.90;999.90;;;4.00;99.90;;;;;;4988196;28;20459;-74
2022/12/20 01:21:52;;;;;;;1999.90;999.90;;;4.10;99.90;;;;;;4988638;28;20500;-74
2022/12/20 01:24:20;;;;;;;1999.90;999.90;;;4.10;99.90;;;;;;5008264;28;20469;-74
2022/12/20 01:26:48;;;;;;;1999.90;999.90;;;4.10;99.90;;;;;;5004971;28;20453;-75
2022/12/20 01:29:15;;;;;;;1999.90;999.90;;;4.20;99.90;;;;;;5000920;28;20443;-73
2022/12/20 01:31:44;;;;;;;1999.90;999.90;;;4.20;99.90;;;;;;4988649;28;20438;-74
2022/12/20 01:34:11;;;;;;;1999.90;999.90;;;4.20;99.90;;;;;;5005797;28;20908;-74
2022/12/20 01:36:38;;;;;;;1999.90;999.90;;;4.30;99.90;;;;;;5008516;28;20449;-73
2022/12/20 01:39:07;;;;;;;1999.90;999.90;;;4.20;99.90;;;;;;5007646;28;20442;-73
2022/12/20 01:41:35;;;;;;;1999.90;999.90;;;4.20;99.90;;;;;;5008180;28;20493;-73
2022/12/20 01:44:04;;;;;;;1999.90;999.90;;;4.20;99.90;;;;;;5007842;28;20473;-74
2022/12/20 01:46:33;;;;;;;1999.90;999.90;;;4.20;99.90;;;;;;5008322;28;20453;-74
2022/12/20 01:49:06;;;;;;;1999.90;999.90;;;4.10;99.90;;;;;;5007775;28;20453;-73
2022/12/20 01:51:38;;;;;;;1999.90;999.90;;;4.00;99.90;;;;;;5008241;28;20441;-73
2022/12/20 01:54:09;;;;;;;1999.90;999.90;;;3.90;99.90;;;;;;5011615;28;20469;-74
2022/12/20 01:56:39;;;;;;;1999.90;999.90;;;3.80;99.90;;;;;;5011586;28;20462;-73
2022/12/20 01:59:06;;;;;;;1999.90;999.90;;;3.80;99.90;;;;;;5010954;28;20453;-74
2022/12/20 02:01:34;;;;;;;1999.90;999.90;;;3.80;99.90;;;;;;5001603;28;20509;-74
2022/12/20 02:04:03;;;;;;;1999.90;999.90;;;3.80;99.90;;;;;;5006290;28;20488;-74
2022/12/20 02:06:29;;;;;;;1999.90;999.90;;;3.80;99.90;;;;;;5011620;28;20449;-73
2022/12/20 02:08:59;;;;;;;1999.90;999.90;;;3.90;99.90;;;;;;5010993;28;20450;-73
2022/12/20 02:11:58;;;;;;;1999.90;999.90;;;4.00;99.90;;;;;;5011570;28;20441;-74
2022/12/20 02:14:40;;;;;;;1999.90;999.90;;;4.10;99.90;;;;;;4992152;28;20469;-74
2022/12/20 02:17:21;;;;;;;1999.90;999.90;;;4.10;99.90;;;;;;4991941;28;20458;-73
2022/12/20 02:20:22;;;;;;;1999.90;999.90;;;4.10;99.90;;;;;;4991357;28;20474;-73
2022/12/20 02:23:05;;;;;;;1999.90;999.90;;;4.10;99.90;;;;;;4988234;28;20876;-72
2022/12/20 02:25:53;;;;;;;1999.90;999.90;;;4.20;99.90;;;;;;4991966;28;20505;-75
2022/12/20 02:31:39;;;;;;;1999.90;999.90;;;4.30;99.90;;;;;;4967307;28;20450;-74
2022/12/20 02:34:08;;;;;;;1999.90;999.90;;;4.40;99.90;;;;;;4991596;28;20885;-74
2022/12/20 02:36:35;;;;;;;1999.90;999.90;;;4.40;99.90;;;;;;4991961;28;20454;-74
2022/12/20 02:39:02;;;;;;;1999.90;999.90;;;4.30;99.90;;;;;;4991009;28;20810;-74
2022/12/20 02:41:35;;;;;;;1999.90;999.90;;;4.30;99.90;;;;;;4991261;28;20490;-74
2022/12/20 02:46:53;;;;;;;1999.90;999.90;;;4.20;99.90;;;;;;4991552;28;20936;-74
2022/12/20 02:49:25;;;;;;;1999.90;999.90;;;4.10;99.90;;;;;;4991169;28;20462;-74
2022/12/20 02:51:57;;;;;;;1999.90;999.90;;;4.10;99.90;;;;;;4991588;28;20482;-74
2022/12/20 02:54:25;;;;;;;1999.90;999.90;;;4.00;99.90;;;;;;4991177;28;20463;-73
2022/12/20 02:56:55;;;;;;;1999.90;999.90;;;4.00;99.90;;;;;;4991612;28;20461;-73
2022/12/20 02:59:26;;;;;;;1999.90;999.90;;;4.00;99.90;;;;;;4990416;28;20451;-74
2022/12/20 03:01:55;;;;;;;1999.90;999.90;;;4.00;99.90;;;;;;4991781;28;20494;-75
2022/12/20 03:04:26;;;;;;;1999.90;999.90;;;4.00;99.90;;;;;;5009549;28;20841;-74
2022/12/20 03:07:01;;;;;;;1999.90;999.90;;;4.00;99.90;;;;;;5011204;28;20449;-75
2022/12/20 03:09:30;;;;;;;1999.90;999.90;;;4.10;99.90;;;;;;5010504;28;20430;-74
2022/12/20 03:11:56;;;;;;;1999.90;999.90;;;4.10;99.90;;;;;;5010982;28;20457;-74
2022/12/20 03:14:23;;;;;;;1999.90;999.90;;;4.10;99.90;;;;;;5010916;28;21258;-74
2022/12/20 03:16:50;;;;;;;1999.90;999.90;;;4.10;99.90;;;;;;5010761;28;20457;-74
2022/12/20 03:19:18;;;;;;;1999.90;999.90;;;4.20;99.90;;;;;;5009615;28;20457;-74
2022/12/20 03:21:45;;;;;;;1999.90;999.90;;;4.30;99.90;;;;;;5010528;28;20478;-75
2022/12/20 03:24:13;;;;;;;1999.90;999.90;;;4.30;99.90;;;;;;4993857;28;20495;-74
2022/12/20 03:26:40;;;;;;;1999.90;999.90;;;4.30;99.90;;;;;;4991713;28;20521;-74
2022/12/20 03:29:07;;;;;;;1999.90;999.90;;;4.40;99.90;;;;;;4991000;28;20451;-74
2022/12/20 03:31:34;;;;;;;1999.90;999.90;;;4.40;99.90;;;;;;4991129;28;20443;-75
2022/12/20 03:34:01;;;;;;;1999.90;999.90;;;4.40;99.90;;;;;;4990903;28;20471;-74
2022/12/20 03:36:29;;;;;;;1999.90;999.90;;;4.50;99.90;;;;;;4991204;28;20453;-74
2022/12/20 03:38:56;;;;;;;1999.90;999.90;;;4.50;99.90;;;;;;5007906;28;21114;-74
2022/12/20 03:41:23;;;;;;;1999.90;999.90;;;4.50;99.90;;;;;;5010652;28;20481;-74
2022/12/20 03:43:50;;;;;;;1999.90;999.90;;;4.60;99.90;;;;;;5009729;28;21178;-74
2022/12/20 03:46:17;;;;;;;1999.90;999.90;;;4.60;99.90;;;;;;5010108;28;20446;-73
2022/12/20 03:48:44;;;;;;;1999.90;999.90;;;4.60;99.90;;;;;;5009285;28;20936;-75
2022/12/20 03:51:11;;;;;;;1999.90;999.90;;;4.60;99.90;;;;;;5010049;28;20823;-73
2022/12/20 03:53:39;;;;;;;1999.90;999.90;;;4.60;99.90;;;;;;5009461;28;20461;-74
2022/12/20 03:56:06;;;;;;;1999.90;999.90;;;4.60;99.90;;;;;;5010347;28;20446;-73
2022/12/20 03:58:33;;;;;;;1999.90;999.90;;;4.50;99.90;;;;;;5011294;28;20442;-73
2022/12/20 04:01:00;;;;;;;1999.90;999.90;;;4.50;99.90;;;;;;5003100;28;21007;-73
2022/12/20 04:03:27;;;;;;;1999.90;999.90;;;4.60;99.90;;;;;;4990009;28;20463;-74
2022/12/20 04:05:53;;;;;;;1999.90;999.90;;;4.50;99.90;;;;;;4990211;28;20531;-72
2022/12/20 04:08:20;;;;;;;1999.90;999.90;;;4.60;99.90;;;;;;4989868;28;20451;-74
2022/12/20 04:13:32;;;;;;;1999.90;999.90;;;4.50;99.90;;;;;;4989812;28;21039;-73
2022/12/20 04:15:59;;;;;;;1999.90;999.90;;;4.60;99.90;;;;;;4997793;28;20968;-74
2022/12/20 04:18:26;;;;;;;1999.90;999.90;;;4.60;99.90;;;;;;5009066;28;20449;-73
2022/12/20 04:20:53;;;;;;;1999.90;999.90;;;4.60;99.90;;;;;;5010087;28;20477;-74
2022/12/20 04:23:20;;;;;;;1999.90;999.90;;;4.60;99.90;;;;;;5009520;28;20450;-74
2022/12/20 04:25:48;;;;;;;1999.90;999.90;;;4.60;99.90;;;;;;5009421;28;20452;-73
2022/12/20 04:28:15;;;;;;;1999.90;999.90;;;4.60;99.90;;;;;;5009190;28;20457;-74
2022/12/20 04:30:42;;;;;;;1999.90;999.90;;;4.60;99.90;;;;;;5009090;28;20441;-73
2022/12/20 04:33:08;;;;;;;1999.90;999.90;;;4.70;99.90;;;;;;5006741;28;20552;-72
2022/12/20 04:35:36;;;;;;;1999.90;999.90;;;4.70;99.90;;;;;;5009368;28;20454;-74
2022/12/20 04:38:03;;;;;;;1999.90;999.90;;;4.70;99.90;;;;;;5008904;28;20556;-73
2022/12/20 04:40:30;;;;;;;1999.90;999.90;;;4.70;99.90;;;;;;5008275;28;20488;-74
2022/12/20 04:42:58;;;;;;;1999.90;999.90;;;4.70;99.90;;;;;;5008602;28;20522;-73
2022/12/20 04:45:24;;;;;;;1999.90;999.90;;;4.70;99.90;;;;;;5008652;28;20477;-74
2022/12/20 04:47:51;;;;;;;1999.90;999.90;;;4.70;99.90;;;;;;5009268;28;20457;-74
2022/12/20 04:50:18;;;;;;;1999.90;999.90;;;4.70;99.90;;;;;;5008086;28;20454;-74
2022/12/20 04:55:30;;;;;;;1999.90;999.90;;;4.70;99.90;;;;;;5009021;28;20448;-74
2022/12/20 04:57:58;;;;;;;1999.90;999.90;;;4.70;99.90;;;;;;5026815;28;20444;-74
2022/12/20 05:00:25;;;;;;;1999.90;999.90;;;4.70;99.90;;;;;;5027975;28;20448;-74
2022/12/20 05:02:52;;;;;;;1999.90;999.90;;;4.70;99.90;;;;;;5028318;28;20457;-74
2022/12/20 05:05:18;;;;;;;1999.90;999.90;;;4.70;99.90;;;;;;5028922;28;20476;-74
2022/12/20 05:07:45;;;;;;;1999.90;999.90;;;4.70;99.90;;;;;;5027378;28;20457;-74
2022/12/20 05:10:12;;;;;;;1999.90;999.90;;;4.70;99.90;;;;;;5007444;28;21162;-74
2022/12/20 05:12:39;;;;;;;1999.90;999.90;;;4.70;99.90;;;;;;5008453;28;20970;-74
2022/12/20 05:15:08;;;;;;;1999.90;999.90;;;4.60;99.90;;;;;;5008569;28;21034;-75
2022/12/20 05:17:35;;;;;;;1999.90;999.90;;;4.70;99.90;;;;;;5008828;28;20472;-74
2022/12/20 05:20:02;;;;;;;1999.90;999.90;;;4.70;99.90;;;;;;5008077;28;21073;-74
2022/12/20 05:27:57;;;;;;;1999.90;999.90;;;4.60;99.90;;;;;;5009932;28;20476;-74
2022/12/20 05:30:26;;;;;;;1999.90;999.90;;;4.70;99.90;;;;;;5011257;28;20445;-74
2022/12/20 05:32:53;;;;;;;1999.90;999.90;;;4.70;99.90;;;;;;5012034;28;20464;-74
2022/12/20 05:35:20;;;;;;;1999.90;999.90;;;4.70;99.90;;;;;;5012353;28;20464;-75
2022/12/20 05:37:47;;;;;;;1999.90;999.90;;;4.70;99.90;;;;;;5012208;28;20541;-74
2022/12/20 05:40:15;;;;;;;1999.90;999.90;;;4.80;99.90;;;;;;5011310;28;20449;-74
2022/12/20 05:42:41;;;;;;;1999.90;999.90;;;4.80;99.90;;;;;;5011761;28;20480;-73
2022/12/20 05:45:10;;;;;;;1999.90;999.90;;;4.80;99.90;;;;;;4996125;28;21012;-71
2022/12/20 05:47:38;;;;;;;1999.90;999.90;;;4.80;99.90;;;;;;4991748;28;20451;-71
2022/12/20 05:50:05;;;;;;;1999.90;999.90;;;4.80;99.90;;;;;;4990880;28;20438;-73
2022/12/20 05:52:32;;;;;;;1999.90;999.90;;;4.80;99.90;;;;;;4991303;28;20439;-70
2022/12/20 05:54:59;;;;;;;1999.90;999.90;;;4.80;99.90;;;;;;4991886;28;20828;-70
2022/12/20 05:57:26;;;;;;;1999.90;999.90;;;4.70;99.90;;;;;;4991525;28;21167;-71
2022/12/20 05:59:53;;;;;;;1999.90;999.90;;;4.70;99.90;;;;;;4991022;28;20446;-71
2022/12/20 06:02:20;;;;;;;1999.90;999.90;;;4.70;99.90;;;;;;4992221;28;20482;-70
2022/12/20 06:04:48;;;;;;;1999.90;999.90;;;4.70;99.90;;;;;;4998581;28;20464;-71
2022/12/20 06:07:15;;;;;;;1999.90;999.90;;;4.70;99.90;;;;;;5012439;28;20449;-70
2022/12/20 06:09:41;;;;;;;1999.90;999.90;;;4.70;99.90;;;;;;5006627;28;20445;-71
2022/12/20 06:12:08;;;;;;;1999.90;999.90;;;4.80;99.90;;;;;;5006075;28;20943;-71
2022/12/20 06:14:35;;;;;;;1999.90;999.90;;;4.80;99.90;;;;;;5018194;28;20460;-70
2022/12/20 06:17:02;;;;;;;1999.90;999.90;;;4.80;99.90;;;;;;5012892;28;20461;-71
2022/12/20 06:19:28;;;;;;;1999.90;999.90;;;4.70;99.90;;;;;;5010631;28;20460;-72
2022/12/20 06:21:57;;;;;;;1999.90;999.90;;;4.80;99.90;;;;;;5007176;28;20484;-71
2022/12/20 06:24:24;;;;;;;1999.90;999.90;;;4.80;99.90;;;;;;5009593;28;20461;-71
2022/12/20 06:26:51;;;;;;;1999.90;999.90;;;4.80;99.90;;;;;;5024862;28;20532;-71
2022/12/20 06:29:19;;;;;;;1999.90;999.90;;;4.80;99.90;;;;;;5028914;28;20460;-71
2022/12/20 06:31:46;;;;;;;1999.90;999.90;;;4.80;99.90;;;;;;5029709;28;20560;-71
2022/12/20 06:34:13;;;;;;;1999.90;999.90;;;4.80;99.90;;;;;;4991458;28;21031;-72
2022/12/20 06:36:41;;;;;;;1999.90;999.90;;;4.80;99.90;;;;;;4990633;28;20510;-71
2022/12/20 06:39:09;;;;;;;1999.90;999.90;;;4.80;99.90;;;;;;4988456;28;20974;-72
2022/12/20 06:41:36;;;;;;;1999.90;999.90;;;4.80;99.90;;;;;;4990323;28;21034;-72
2022/12/20 06:44:03;;;;;;;1999.90;999.90;;;4.90;99.90;;;;;;4989979;28;20478;-70
2022/12/20 06:46:30;;;;;;;1999.90;999.90;;;4.80;99.90;;;;;;4990506;28;20451;-71
2022/12/20 06:48:56;;;;;;;1999.90;999.90;;;4.80;99.90;;;;;;4990676;28;20461;-71
2022/12/20 06:51:23;;;;;;;1999.90;999.90;;;4.80;99.90;;;;;;4990596;28;20454;-71
2022/12/20 06:53:50;;;;;;;1999.90;999.90;;;4.90;99.90;;;;;;4989946;28;20641;-69
2022/12/20 06:56:19;;;;;;;1999.90;999.90;;;5.00;99.90;;;;;;4990614;28;20446;-72
2022/12/20 06:58:46;;;;;;;1999.90;999.90;;;4.90;99.90;;;;;;4991503;28;20957;-70
2022/12/20 07:01:13;;;;;;;1999.90;999.90;;;4.90;99.90;;;;;;5009986;28;20536;-71
2022/12/20 07:03:40;;;;;;;1999.90;999.90;;;5.00;99.90;;;;;;5005857;28;20481;-70
2022/12/20 07:06:07;;;;;;;1999.90;999.90;;;5.00;99.90;;;;;;4990391;28;20447;-71
2022/12/20 07:08:33;;;;;;;1999.90;999.90;;;5.00;99.90;;;;;;4989349;28;20442;-71
2022/12/20 07:11:04;;;;;;;1999.90;999.90;;;4.90;99.90;;;;;;4989829;28;20447;-70
2022/12/20 07:13:33;;;;;;;1999.90;999.90;;;4.90;99.90;;;;;;4989437;28;20622;-71
2022/12/20 07:16:00;;;;;;;1999.90;999.90;;;4.80;99.90;;;;;;4989705;28;21071;-71
2022/12/20 07:18:27;;;;;;;1999.90;999.90;;;4.80;99.90;;;;;;4989036;28;20451;-71
2022/12/20 07:20:54;;;;;;;1999.90;999.90;;;4.80;99.90;;;;;;4991138;28;20465;-71
2022/12/20 07:23:20;;;;;;;1999.90;999.90;;;4.70;99.90;;;;;;4989412;28;20494;-70
2022/12/20 07:25:54;;;;;;;1999.90;999.90;;;4.70;99.90;;;;;;4989947;28;20541;-70
2022/12/20 07:28:20;;;;;;;1999.90;999.90;;;4.80;99.90;;;;;;4989074;28;20434;-70
2022/12/20 07:30:48;;;;;;;1999.90;999.90;;;4.70;99.90;;;;;;4989698;28;20450;-72
2022/12/20 07:33:15;;;;;;;1999.90;999.90;;;4.60;99.90;;;;;;4988975;28;20447;-70
2022/12/20 07:35:44;;;;;;;1999.90;999.90;;;4.60;99.90;;;;;;4992127;28;20466;-68
2022/12/20 07:38:11;;;;;;;1999.90;999.90;;;4.50;99.90;;;;;;4999500;28;20454;-70
2022/12/20 07:40:40;;;;;;;1999.90;999.90;;;4.50;99.90;;;;;;5008308;28;21202;-69
2022/12/20 07:43:07;;;;;;;1999.90;999.90;;;4.60;99.90;;;;;;5008475;28;20540;-70
2022/12/20 07:45:33;;;;;;;1999.90;999.90;;;4.60;99.90;;;;;;5008386;28;21229;-70
2022/12/20 07:48:02;;;;;;;1999.90;999.90;;;4.60;99.90;;;;;;5006010;28;20453;-70
2022/12/20 07:50:29;;;;;;;1999.90;999.90;;;4.70;99.90;;;;;;5007016;28;20457;-70
2022/12/20 07:52:57;;;;;;;1999.90;999.90;;;4.80;99.90;;;;;;5008587;28;20454;-69
2022/12/20 07:55:24;;;;;;;1999.90;999.90;;;4.90;99.90;;;;;;5008518;28;20504;-70
2022/12/20 07:57:56;;;;;;;1999.90;999.90;;;5.10;99.90;;;;;;5008952;28;20453;-71
2022/12/20 08:00:25;;;;;;;1999.90;999.90;;;5.20;99.90;;;;;;5000079;28;20945;-70
2022/12/20 08:02:55;;;;;;;1999.90;999.90;;;5.30;99.90;;;;;;4988644;28;20482;-70
2022/12/20 08:05:24;;;;;;;1999.90;999.90;;;5.30;99.90;;;;;;4989687;28;20483;-68
2022/12/20 08:07:54;;;;;;;1999.90;999.90;;;5.40;99.90;;;;;;5005036;28;20462;-67
2022/12/20 08:10:21;;;;;;;1999.90;999.90;;;5.40;99.90;;;;;;5006729;28;20454;-70
2022/12/20 08:12:48;;;;;;;1999.90;999.90;;;5.50;99.90;;;;;;5007112;28;20480;-70
2022/12/20 08:15:15;;;;;;;1999.90;999.90;;;5.60;99.90;;;;;;5006537;28;20469;-71
2022/12/20 08:17:42;;;;;;;1999.90;999.90;;;5.60;99.90;;;;;;5006390;28;20979;-71
2022/12/20 08:20:10;;;;;;;1999.90;999.90;;;5.80;99.90;;;;;;4994788;28;20472;-71
2022/12/20 08:22:39;;;;;;;1999.90;999.90;;;5.80;99.90;;;;;;5002708;28;21221;-71
2022/12/20 08:25:07;;;;;;;1999.90;999.90;;;5.90;99.90;;;;;;4998496;28;20871;-69
2022/12/20 08:27:33;;;;;;;1999.90;999.90;;;6.00;99.90;;;;;;5002945;28;21006;-69
2022/12/20 08:30:00;;;;;;;1999.90;999.90;;;6.10;99.90;;;;;;5003415;28;20461;-68
2022/12/20 08:32:28;;;;;;;1999.90;999.90;;;6.10;99.90;;;;;;4994198;28;20455;-69
2022/12/20 08:34:55;;;;;;;1999.90;999.90;;;6.10;99.90;;;;;;5000777;28;20484;-69
2022/12/20 08:37:21;;;;;;;1999.90;999.90;;;6.20;99.90;;;;;;5001318;28;20452;-69
2022/12/20 08:39:50;;;;;;;1999.90;999.90;;;6.30;99.90;;;;;;5006284;28;20936;-68
2022/12/20 08:42:16;;;;;;;1999.90;999.90;;;6.30;99.90;;;;;;5003350;28;20482;-69
2022/12/20 08:44:43;;;;;;;1999.90;999.90;;;6.20;99.90;;;;;;4994448;28;20486;-70
2022/12/20 08:47:10;;;;;;;1999.90;999.90;;;6.20;99.90;;;;;;4999894;28;20527;-69
2022/12/20 08:49:37;;;;;;;1999.90;999.90;;;6.20;99.90;;;;;;4996993;28;20830;-68
2022/12/20 08:52:04;;;;;;;1999.90;999.90;;;6.30;99.90;;;;;;5002691;28;20918;-69
2022/12/20 08:54:31;;;;;;;1999.90;999.90;;;6.30;99.90;;;;;;5002877;28;20469;-68
2022/12/20 08:57:00;;;;;;;1999.90;999.90;;;6.40;99.90;;;;;;5001611;28;20537;-70
2022/12/20 08:59:26;;;;;;;1999.90;999.90;;;6.60;99.90;;;;;;5003888;28;20453;-68
2022/12/20 09:01:54;;;;;;;1999.90;999.90;;;6.70;99.90;;;;;;4998377;28;20487;-68
2022/12/20 09:04:21;;;;;;;1999.90;999.90;;;6.80;99.90;;;;;;4992853;28;20481;-69
2022/12/20 09:06:47;;;;;;;1999.90;999.90;;;6.90;99.90;;;;;;4996514;28;20450;-70
2022/12/20 09:09:15;;;;;;;1999.90;999.90;;;7.00;99.90;;;;;;4996461;28;20446;-69
2022/12/20 09:11:42;;;;;;;1999.90;999.90;;;7.20;99.90;;;;;;4993194;28;20825;-69
2022/12/20 09:14:10;;;;;;;1999.90;999.90;;;7.30;99.90;;;;;;4995042;28;20474;-70
2022/12/20 09:16:37;;;;;;;1999.90;999.90;;;7.40;99.90;;;;;;4993944;28;20473;-70
2022/12/20 09:19:06;;;;;;;1999.90;999.90;;;7.40;99.90;;;;;;4995600;28;21025;-69
2022/12/20 09:21:36;;;;;;;1999.90;999.90;;;7.40;99.90;;;;;;4998728;28;20458;-70
2022/12/20 09:24:02;;;;;;;1999.90;999.90;;;7.50;99.90;;;;;;4998126;28;20567;-69
2022/12/20 09:26:29;;;;;;;1999.90;999.90;;;7.40;99.90;;;;;;4996785;28;20454;-70
2022/12/20 09:28:56;;;;;;;1999.90;999.90;;;7.50;99.90;;;;;;4993025;28;21356;-69
2022/12/20 09:31:26;;;;;;;1999.90;999.90;;;7.50;99.90;;;;;;5001100;28;20460;-70
2022/12/20 09:33:54;;;;;;;1999.90;999.90;;;7.60;99.90;;;;;;5011417;28;20492;-70
2022/12/20 09:36:22;;;;;;;1999.90;999.90;;;7.60;99.90;;;;;;5007222;28;20494;-70
2022/12/20 09:38:49;;;;;;;1999.90;999.90;;;7.60;99.90;;;;;;5007828;28;20452;-70
2022/12/20 09:41:25;;;;;;;1999.90;999.90;;;7.70;99.90;;;;;;5003626;28;20464;-71
2022/12/20 09:43:52;;;;;;;1999.90;999.90;;;7.70;99.90;;;;;;4997838;28;20488;-71
2022/12/20 09:46:19;;;;;;;1999.90;999.90;;;7.70;99.90;;;;;;5004345;28;20458;-71
2022/12/20 09:48:47;;;;;;;1999.90;999.90;;;7.70;99.90;;;;;;5005705;28;20489;-71
2022/12/20 09:51:29;;;;;;;1999.90;999.90;;;7.70;99.90;;;;;;5006275;28;21170;-71
2022/12/20 09:54:06;;;;;;;1999.90;999.90;;;7.80;99.90;;;;;;5005305;28;20480;-70
2022/12/20 09:56:35;;;;;;;1999.90;999.90;;;7.90;99.90;;;;;;5006298;28;21301;-69
2022/12/20 09:59:04;;;;;;;1999.90;999.90;;;7.90;99.90;;;;;;5006216;28;20457;-72
2022/12/20 10:01:33;;;;;;;1999.90;999.90;;;8.00;99.90;;;;;;4990091;28;20463;-71
2022/12/20 10:04:05;;;;;;;1999.90;999.90;;;8.10;99.90;;;;;;4986895;28;21030;-71
2022/12/20 10:06:43;;;;;;;1999.90;999.90;;;8.20;99.90;;;;;;4987549;28;20446;-70
2022/12/20 10:09:19;;;;;;;1999.90;999.90;;;8.30;99.90;;;;;;4996897;28;20457;-71
2022/12/20 10:12:01;;;;;;;1999.90;999.90;;;8.40;99.90;;;;;;5000042;28;20449;-70
2022/12/20 10:14:50;;;;;;;1999.90;999.90;;;8.50;99.90;;;;;;5002771;28;20476;-71
2022/12/20 10:17:28;;;;;;;1999.90;999.90;;;8.50;99.90;;;;;;5008997;28;20550;-71
2022/12/20 10:20:09;;;;;;;1999.90;999.90;;;8.50;99.90;;;;;;5012637;28;20520;-71
2022/12/20 10:22:42;;;;;;;1999.90;999.90;;;8.50;99.90;;;;;;5000080;28;20563;-71
2022/12/20 10:25:16;;;;;;;1999.90;999.90;;;8.50;99.90;;;;;;5005986;28;20686;-70
2022/12/20 10:27:45;;;;;;;1999.90;999.90;;;8.40;99.90;;;;;;5014224;28;20440;-71
2022/12/20 10:30:14;;;;;;;1999.90;999.90;;;8.40;99.90;;;;;;5008085;28;20457;-71
2022/12/20 10:32:44;;;;;;;1999.90;999.90;;;8.40;99.90;;;;;;5015044;28;20543;-70
2022/12/20 10:35:23;;;;;;;1999.90;999.90;;;8.50;99.90;;;;;;4998807;28;20977;-72
2022/12/20 10:38:01;;;;;;;1999.90;999.90;;;8.60;99.90;;;;;;5006758;28;20448;-70
2022/12/20 10:40:31;;;;;;;1999.90;999.90;;;8.80;99.90;;;;;;5008772;28;20518;-71
2022/12/20 10:42:58;;;;;;;1999.90;999.90;;;8.90;99.90;;;;;;5007330;28;20497;-71
2022/12/20 10:45:33;;;;;;;1999.90;999.90;;;9.00;99.90;;;;;;5000806;28;21012;-71
2022/12/20 10:48:02;;;;;;;1999.90;999.90;;;9.10;99.90;;;;;;4997720;28;20493;-71
2022/12/20 10:50:31;;;;;;;1999.90;999.90;;;9.10;99.90;;;;;;5011103;28;20458;-70
2022/12/20 10:53:23;;;;;;;1999.90;999.90;;;9.10;99.90;;;;;;5008935;28;20518;-69
2022/12/20 10:55:50;;;;;;;1999.90;999.90;;;9.10;99.90;;;;;;5004354;28;20462;-70
2022/12/20 10:58:22;;;;;;;1999.90;999.90;;;9.10;99.90;;;;;;5009796;28;20460;-71
2022/12/20 11:00:49;;;;;;;1999.90;999.90;;;9.10;99.90;;;;;;5008706;28;20456;-71
2022/12/20 11:03:19;;;;;;;1999.90;999.90;;;9.00;99.90;;;;;;5005739;28;20552;-70
2022/12/20 11:05:59;;;;;;;1999.90;999.90;;;9.00;99.90;;;;;;5001861;28;20487;-69
2022/12/20 11:08:26;;;;;;;1999.90;999.90;;;9.10;99.90;;;;;;5012572;28;20459;-70
2022/12/20 11:11:12;;;;;;;1999.90;999.90;;;9.20;99.90;;;;;;5010669;28;20445;-70
2022/12/20 11:13:40;;;;;;;1999.90;999.90;;;9.30;99.90;;;;;;5020468;28;20457;-70
2022/12/20 11:16:24;;;;;;;1999.90;999.90;;;9.40;99.90;;;;;;5016043;28;20445;-70
2022/12/20 11:19:00;;;;;;;1999.90;999.90;;;9.60;99.90;;;;;;5011356;28;20437;-70
2022/12/20 11:21:34;;;;;;;1999.90;999.90;;;9.70;99.90;;;;;;5010980;28;20437;-70
2022/12/20 11:24:10;;;;;;;1999.90;999.90;;;9.70;99.90;;;;;;5006727;28;20493;-70
2022/12/20 11:26:56;;;;;;;1999.90;999.90;;;9.70;99.90;;;;;;5007311;28;21156;-71
2022/12/20 11:29:40;;;;;;;1999.90;999.90;;;9.70;99.90;;;;;;5006308;28;20461;-70
2022/12/20 11:32:21;;;;;;;1999.90;999.90;;;9.70;99.90;;;;;;5017764;28;20451;-70
2022/12/20 11:34:54;;;;;;;1999.90;999.90;;;9.80;99.90;;;;;;5014185;28;20559;-71
2022/12/20 11:37:24;;;;;;;1999.90;999.90;;;9.90;99.90;;;;;;5014114;28;20453;-70
2022/12/20 11:40:04;;;;;;;1999.90;999.90;;;9.90;99.90;;;;;;5007669;28;20456;-72
2022/12/20 11:42:47;;;;;;;1999.90;999.90;;;9.90;99.90;;;;;;5007439;28;20969;-71
2022/12/20 11:45:23;;;;;;;1999.90;999.90;;;10.00;99.90;;;;;;5003842;28;20474;-71
2022/12/20 11:48:03;;;;;;;1999.90;999.90;;;9.90;99.90;;;;;;5007805;28;20448;-71
2022/12/20 11:50:43;;;;;;;1999.90;999.90;;;9.90;99.90;;;;;;5010549;28;20445;-71
2022/12/20 11:53:20;;;;;;;1999.90;999.90;;;9.90;99.90;;;;;;5017183;28;20448;-71
2022/12/20 11:55:51;;;;;;;1999.90;999.90;;;9.90;99.90;;;;;;5017208;28;21030;-71
2022/12/20 11:58:25;;;;;;;1999.90;999.90;;;9.90;99.90;;;;;;5015211;28;20461;-71
2022/12/20 12:00:57;;;;;;;1999.90;999.90;;;9.90;99.90;;;;;;5005461;28;20454;-71
2022/12/20 12:03:30;;;;;;;1999.90;999.90;;;9.90;99.90;;;;;;5005250;28;20548;-72
2022/12/20 12:06:03;;;;;;;1999.90;999.90;;;9.90;99.90;;;;;;5007010;28;20892;-71
2022/12/20 12:08:39;;;;;;;1999.90;999.90;;;9.80;99.90;;;;;;4998425;28;20450;-70
2022/12/20 12:11:14;;;;;;;1999.90;999.90;;;9.80;99.90;;;;;;5006421;28;20560;-72
2022/12/20 12:13:42;;;;;;;1999.90;999.90;;;9.80;99.90;;;;;;5006636;28;20472;-73
2022/12/20 12:16:12;;;;;;;1999.90;999.90;;;9.70;99.90;;;;;;4992797;28;20465;-72
2022/12/20 12:18:40;;;;;;;1999.90;999.90;;;9.60;99.90;;;;;;5006502;28;20466;-71
2022/12/20 12:21:11;;;;;;;1999.90;999.90;;;9.60;99.90;;;;;;4990859;28;20458;-72
2022/12/20 12:23:49;;;;;;;1999.90;999.90;;;9.60;99.90;;;;;;4999825;28;21002;-76
2022/12/20 12:26:22;;;;;;;1999.90;999.90;;;9.50;99.90;;;;;;5002096;28;20450;-72
2022/12/20 12:28:54;;;;;;;1999.90;999.90;;;9.50;99.90;;;;;;5006870;28;20458;-72
2022/12/20 12:31:27;;;;;;;1999.90;999.90;;;9.60;99.90;;;;;;5010769;28;20438;-73
2022/12/20 12:34:04;;;;;;;1999.90;999.90;;;9.60;99.90;;;;;;5000336;28;21230;-71
2022/12/20 12:37:07;;;;;;;1999.90;999.90;;;9.70;99.90;;;;;;5014133;28;20437;-72